createdAt,value
2018-12-04T00:00:50.663Z,10.07
2018-12-04T00:03:25.269Z,7.87
2018-12-04T00:05:59.061Z,8.23
2018-12-04T00:08:33.222Z,11.70
2018-12-04T00:11:07.766Z,8.37
2018-12-04T00:13:41.786Z,8.83
2018-12-04T00:16:15.688Z,8.77
2018-12-04T00:18:49.583Z,8.70
2018-12-04T00:21:23.668Z,10.27
2018-12-04T00:23:57.613Z,7.57
2018-12-04T00:26:31.588Z,6.20
2018-12-04T00:29:05.501Z,8.40
2018-12-04T00:31:39.547Z,5.43
2018-12-04T00:34:13.554Z,6.73
2018-12-04T00:36:47.460Z,6.83
2018-12-04T00:39:21.515Z,6.67
2018-12-04T00:41:55.379Z,8.97
2018-12-04T00:44:29.709Z,8.37
2018-12-04T00:49:34.698Z,5.33
2018-12-04T00:52:08.813Z,5.73
2018-12-04T00:54:42.698Z,5.53
2018-12-04T00:57:16.837Z,5.13
2018-12-04T00:59:51.401Z,4.47
2018-12-04T01:02:25.686Z,4.30
2018-12-04T01:04:58.008Z,3.03
2018-12-04T01:07:32.612Z,3.73
2018-12-04T01:10:06.989Z,4.33
2018-12-04T01:12:41.466Z,2.90
2018-12-04T01:15:15.383Z,3.63
2018-12-04T01:17:49.290Z,5.20
2018-12-04T01:20:23.370Z,6.73
2018-12-04T01:22:57.401Z,4.93
2018-12-04T01:25:31.823Z,6.63
2018-12-04T01:28:04.201Z,7.37
2018-12-04T01:30:38.375Z,5.87
2018-12-04T01:33:12.425Z,6.20
2018-12-04T01:35:45.078Z,5.50
2018-12-04T01:38:19.026Z,5.50
2018-12-04T01:40:53.166Z,6.50
2018-12-04T01:43:27.846Z,11.33
2018-12-04T01:46:01.755Z,7.53
2018-12-04T01:48:35.501Z,6.67
2018-12-04T01:51:09.599Z,7.47
2018-12-04T01:53:43.773Z,5.20
2018-12-04T01:56:17.653Z,8.33
2018-12-04T01:58:51.697Z,8.60
2018-12-04T02:01:25.678Z,5.37
2018-12-04T02:04:01.492Z,5.20
2018-12-04T02:06:35.776Z,3.83
2018-12-04T02:09:10.405Z,4.63
2018-12-04T02:11:44.405Z,4.17
2018-12-04T02:14:18.221Z,4.70
2018-12-04T02:16:52.238Z,3.27
2018-12-04T02:19:24.770Z,3.73
2018-12-04T02:21:59.159Z,5.35
2018-12-04T02:24:33.257Z,4.43
2018-12-04T02:27:07.818Z,7.73
2018-12-04T02:29:41.730Z,6.17
2018-12-04T02:32:15.796Z,4.50
2018-12-04T02:34:49.684Z,5.37
2018-12-04T02:37:23.558Z,3.77
2018-12-04T02:39:57.478Z,5.00
2018-12-04T02:42:31.326Z,5.80
2018-12-04T02:45:04.051Z,5.30
2018-12-04T02:47:38.129Z,5.73
2018-12-04T02:50:12.385Z,3.47
2018-12-04T02:52:46.234Z,5.57
2018-12-04T02:55:20.001Z,5.33
2018-12-04T02:57:54.105Z,4.90
2018-12-04T03:00:27.971Z,4.70
2018-12-04T03:03:01.970Z,5.53
2018-12-04T03:05:36.624Z,3.93
2018-12-04T03:08:10.766Z,7.17
2018-12-04T03:10:44.534Z,4.37
2018-12-04T03:13:18.694Z,5.10
2018-12-04T03:15:52.481Z,3.97
2018-12-04T03:18:26.637Z,5.47
2018-12-04T03:21:00.449Z,2.97
2018-12-04T03:23:34.507Z,5.10
2018-12-04T03:26:08.481Z,4.53
2018-12-04T03:28:42.451Z,5.10
2018-12-04T03:31:16.483Z,4.53
2018-12-04T03:33:50.564Z,4.73
2018-12-04T03:36:24.454Z,6.60
2018-12-04T03:38:58.360Z,5.73
2018-12-04T03:41:32.243Z,8.23
2018-12-04T03:44:06.227Z,9.97
2018-12-04T03:46:40.126Z,7.03
2018-12-04T03:49:14.090Z,8.47
2018-12-04T03:51:46.410Z,4.77
2018-12-04T03:54:21.049Z,7.23
2018-12-04T03:56:55.192Z,8.30
2018-12-04T03:59:29.210Z,8.10
2018-12-04T04:02:03.110Z,5.57
2018-12-04T04:04:37.737Z,7.30
2018-12-04T04:07:11.859Z,7.37
2018-12-04T04:09:45.916Z,5.73
2018-12-04T04:12:19.934Z,5.90
2018-12-04T04:14:54.068Z,7.30
2018-12-04T04:17:27.866Z,5.27
2018-12-04T04:20:02.046Z,7.53
2018-12-04T04:22:36.044Z,5.53
2018-12-04T04:25:09.855Z,6.47
2018-12-04T04:27:43.834Z,7.00
2018-12-04T04:30:17.717Z,8.47
2018-12-04T04:32:51.608Z,4.67
2018-12-04T04:35:26.080Z,6.90
2018-12-04T04:38:00.473Z,7.70
2018-12-04T04:40:34.293Z,7.73
2018-12-04T04:43:08.228Z,7.60
2018-12-04T04:45:41.987Z,8.43
2018-12-04T04:48:15.949Z,11.17
2018-12-04T04:50:50.134Z,8.27
2018-12-04T04:53:24.479Z,8.00
2018-12-04T04:55:58.277Z,8.93
2018-12-04T04:58:32.228Z,11.07
2018-12-04T05:01:06.077Z,8.07
2018-12-04T05:03:40.638Z,10.07
2018-12-04T05:06:15.048Z,7.77
2018-12-04T05:08:49.306Z,9.37
2018-12-04T05:11:23.110Z,7.03
2018-12-04T05:13:57.035Z,8.87
2018-12-04T05:16:31.017Z,7.57
2018-12-04T05:19:04.981Z,9.03
2018-12-04T05:21:39.455Z,8.37
2018-12-04T05:24:13.337Z,7.63
2018-12-04T05:26:47.654Z,7.83
2018-12-04T05:29:21.758Z,7.20
2018-12-04T05:31:56.687Z,9.23
2018-12-04T05:34:30.575Z,9.30
2018-12-04T05:37:04.679Z,7.03
2018-12-04T05:39:38.490Z,11.50
2018-12-04T05:42:12.382Z,8.40
2018-12-04T05:44:46.374Z,4.67
2018-12-04T05:47:20.641Z,7.95
2018-12-04T05:49:53.005Z,9.73
2018-12-04T05:52:27.503Z,6.60
2018-12-04T05:55:01.519Z,8.27
2018-12-04T05:57:35.449Z,9.10
2018-12-04T06:00:09.955Z,6.40
2018-12-04T06:02:44.199Z,9.10
2018-12-04T06:05:18.257Z,5.03
2018-12-04T06:07:52.863Z,7.57
2018-12-04T06:10:26.862Z,3.93
2018-12-04T06:13:00.693Z,8.90
2018-12-04T06:15:34.758Z,5.57
2018-12-04T06:18:08.850Z,5.40
2018-12-04T06:20:43.361Z,9.23
2018-12-04T06:23:17.176Z,7.73
2018-12-04T06:25:51.454Z,5.13
2018-12-04T06:28:26.174Z,6.77
2018-12-04T06:31:00.039Z,6.90
2018-12-04T06:33:34.060Z,5.27
2018-12-04T06:36:08.043Z,7.93
2018-12-04T06:38:42.765Z,7.47
2018-12-04T06:41:16.718Z,8.10
2018-12-04T06:43:50.795Z,7.33
2018-12-04T06:46:25.462Z,5.90
2018-12-04T06:49:00.411Z,7.57
2018-12-04T06:51:34.242Z,7.23
2018-12-04T06:54:08.134Z,6.77
2018-12-04T06:56:42.074Z,7.57
2018-12-04T06:59:16.289Z,5.80
2018-12-04T07:01:50.970Z,6.60
2018-12-04T07:04:24.909Z,6.73
2018-12-04T07:06:58.822Z,8.10
2018-12-04T07:09:32.717Z,5.50
2018-12-04T07:12:06.542Z,7.43
2018-12-04T07:14:40.582Z,10.00
2018-12-04T07:17:14.489Z,7.83
2018-12-04T07:19:48.538Z,9.00
2018-12-04T07:22:22.493Z,9.87
2018-12-04T07:24:56.368Z,10.90
2018-12-04T07:27:30.680Z,11.40
2018-12-04T07:30:06.245Z,9.77
2018-12-04T07:32:40.366Z,12.77
2018-12-04T07:35:14.453Z,9.87
2018-12-04T07:37:48.543Z,11.60
2018-12-04T07:40:22.620Z,10.73
2018-12-04T07:42:56.713Z,12.10
2018-12-04T07:45:30.595Z,11.97
2018-12-04T07:48:04.361Z,10.63
2018-12-04T07:50:38.449Z,11.07
2018-12-04T07:53:12.391Z,10.70
2018-12-04T07:55:46.647Z,11.03
2018-12-04T07:58:21.218Z,11.45
2018-12-04T08:00:55.153Z,10.40
2018-12-04T08:03:29.258Z,10.97
2018-12-04T08:06:07.612Z,11.10
2018-12-04T08:08:41.480Z,11.73
2018-12-04T08:11:15.267Z,13.20
2018-12-04T08:13:49.551Z,12.80
2018-12-04T08:16:23.430Z,15.13
2018-12-04T08:18:57.551Z,13.83
2018-12-04T08:21:31.376Z,10.77
2018-12-04T08:24:05.188Z,12.00
2018-12-04T08:26:39.849Z,10.77
2018-12-04T08:29:14.287Z,12.13
2018-12-04T08:31:48.550Z,13.73
2018-12-04T08:34:22.597Z,11.63
2018-12-04T08:36:56.796Z,13.03
2018-12-04T08:39:30.671Z,13.43
2018-12-04T08:42:05.071Z,11.60
2018-12-04T08:44:39.026Z,9.20
2018-12-04T08:47:12.824Z,12.90
2018-12-04T08:49:46.981Z,9.70
2018-12-04T08:52:21.125Z,8.93
2018-12-04T08:54:55.273Z,12.27
2018-12-04T08:57:29.059Z,9.87
2018-12-04T09:00:03.367Z,9.83
2018-12-04T09:02:37.886Z,8.87
2018-12-04T09:05:12.226Z,10.50
2018-12-04T09:07:46.827Z,7.70
2018-12-04T09:10:21.214Z,9.03
2018-12-04T09:12:55.190Z,6.97
2018-12-04T09:15:29.138Z,9.17
2018-12-04T09:18:03.243Z,9.57
2018-12-04T09:20:37.379Z,7.03
2018-12-04T09:23:12.184Z,5.77
2018-12-04T09:25:46.267Z,9.07
2018-12-04T09:28:20.978Z,8.23
2018-12-04T09:30:54.857Z,9.97
2018-12-04T09:33:28.702Z,12.43
2018-12-04T09:36:03.509Z,9.90
2018-12-04T09:38:37.410Z,7.20
2018-12-04T09:41:11.492Z,7.80
2018-12-04T09:43:44.409Z,6.43
2018-12-04T09:46:19.506Z,8.40
2018-12-04T09:48:53.683Z,6.67
2018-12-04T09:51:27.555Z,6.10
2018-12-04T09:54:01.345Z,8.53
2018-12-04T09:56:35.374Z,8.77
2018-12-04T09:59:09.303Z,6.67
2018-12-04T10:01:43.369Z,6.37
2018-12-04T10:04:17.506Z,10.70
2018-12-04T10:06:52.021Z,6.40
2018-12-04T10:09:26.787Z,7.27
2018-12-04T10:12:00.672Z,5.97
2018-12-04T10:14:34.558Z,9.80
2018-12-04T10:17:08.400Z,7.33
2018-12-04T10:19:42.318Z,9.90
2018-12-04T10:22:16.331Z,9.53
2018-12-04T10:24:50.108Z,7.30
2018-12-04T10:27:24.061Z,10.10
2018-12-04T10:29:58.039Z,9.80
2018-12-04T10:32:32.179Z,10.47
2018-12-04T10:35:06.313Z,11.53
2018-12-04T10:37:40.213Z,9.13
2018-12-04T10:40:14.105Z,9.30
2018-12-04T10:42:48.494Z,9.67
2018-12-04T10:45:23.029Z,7.07
2018-12-04T10:47:57.064Z,8.50
2018-12-04T10:50:30.874Z,7.90
2018-12-04T10:53:04.867Z,9.88
2018-12-04T10:55:38.865Z,12.93
2018-12-04T10:58:12.733Z,8.90
2018-12-04T11:00:52.214Z,9.33
2018-12-04T11:05:56.618Z,8.53
2018-12-04T11:08:31.133Z,10.30
2018-12-04T11:11:05.170Z,12.90
2018-12-04T11:13:39.158Z,8.47
2018-12-04T11:16:13.162Z,9.23
2018-12-04T11:18:47.046Z,8.40
2018-12-04T11:21:21.762Z,12.13
2018-12-04T11:23:55.849Z,8.83
2018-12-04T11:26:29.820Z,10.33
2018-12-04T11:29:03.785Z,8.73
2018-12-04T11:31:37.589Z,9.37
2018-12-04T11:34:11.613Z,10.73
2018-12-04T11:36:45.690Z,10.47
2018-12-04T11:39:18.259Z,11.43
2018-12-04T11:41:52.537Z,14.87
2018-12-04T11:44:25.040Z,9.23
2018-12-04T11:46:59.124Z,11.90
2018-12-04T11:49:32.998Z,7.20
2018-12-04T11:52:08.097Z,12.47
2018-12-04T11:54:42.681Z,7.07
2018-12-04T11:57:18.944Z,10.33
2018-12-04T11:59:53.552Z,10.37
2018-12-04T12:02:25.944Z,10.77
2018-12-04T12:05:03.368Z,8.43
2018-12-04T12:07:37.393Z,7.20
2018-12-04T12:10:11.540Z,3.87
2018-12-04T12:12:44.026Z,5.27
2018-12-04T12:15:19.651Z,7.97
2018-12-04T12:17:52.119Z,3.53
2018-12-04T12:20:26.555Z,4.80
2018-12-04T12:23:00.531Z,7.87
2018-12-04T12:25:35.290Z,6.00
2018-12-04T12:28:09.073Z,4.70
2018-12-04T12:30:43.377Z,6.53
2018-12-04T12:33:17.987Z,5.33
2018-12-04T12:35:51.784Z,6.40
2018-12-04T12:38:26.020Z,9.70
2018-12-04T12:40:59.801Z,6.53
2018-12-04T12:43:33.749Z,10.73
2018-12-04T12:46:08.135Z,7.03
2018-12-04T12:48:42.561Z,8.63
2018-12-04T12:51:16.641Z,11.17
2018-12-04T12:53:50.551Z,10.70
2018-12-04T12:56:24.461Z,11.13
2018-12-04T12:58:59.267Z,10.33
2018-12-04T13:01:33.961Z,7.10
2018-12-04T13:04:08.750Z,9.78
2018-12-04T13:06:43.445Z,7.57
2018-12-04T13:09:17.371Z,10.80
2018-12-04T13:11:52.331Z,8.57
2018-12-04T13:14:26.363Z,9.90
2018-12-04T13:17:00.248Z,8.70
2018-12-04T13:19:34.300Z,9.40
2018-12-04T13:22:08.316Z,7.80
2018-12-04T13:24:40.081Z,8.30
2018-12-04T13:27:14.195Z,9.30
2018-12-04T13:29:48.288Z,11.07
2018-12-04T13:32:22.217Z,11.63
2018-12-04T13:34:56.241Z,10.40
2018-12-04T13:37:30.241Z,10.90
2018-12-04T13:40:08.680Z,11.77
2018-12-04T13:42:41.432Z,8.27
2018-12-04T13:45:15.529Z,14.50
2018-12-04T13:47:49.862Z,9.47
2018-12-04T13:50:24.890Z,10.80
2018-12-04T13:52:59.397Z,6.27
2018-12-04T13:55:33.447Z,14.23
2018-12-04T13:58:07.612Z,11.30
2018-12-04T14:00:42.353Z,9.83
2018-12-04T14:03:14.852Z,16.93
2018-12-04T14:05:49.158Z,10.23
2018-12-04T14:08:23.344Z,13.97
2018-12-04T14:10:57.470Z,6.07
2018-12-04T14:13:31.398Z,9.83
2018-12-04T14:16:05.414Z,9.00
2018-12-04T14:18:37.887Z,12.93
2018-12-04T14:21:12.493Z,11.00
2018-12-04T14:23:47.303Z,10.37
2018-12-04T14:26:21.230Z,12.53
2018-12-04T14:28:53.689Z,11.20
2018-12-04T14:31:28.183Z,10.23
2018-12-04T14:34:03.025Z,10.40
2018-12-04T14:36:36.924Z,9.30
2018-12-04T14:39:11.127Z,13.77
2018-12-04T14:41:45.874Z,8.13
2018-12-04T14:44:20.052Z,14.27
2018-12-04T14:46:51.811Z,8.70
2018-12-04T14:49:33.293Z,13.80
2018-12-04T14:52:08.582Z,8.37
2018-12-04T14:54:43.197Z,9.50
2018-12-04T14:57:17.826Z,7.03
2018-12-04T14:59:52.520Z,7.93
2018-12-04T15:02:26.637Z,10.13
2018-12-04T15:05:00.619Z,8.20
2018-12-04T15:07:34.669Z,5.23
2018-12-04T15:10:10.275Z,10.20
2018-12-04T15:12:44.548Z,7.33
2018-12-04T15:15:19.423Z,8.43
2018-12-04T15:17:54.188Z,5.20
2018-12-04T15:20:28.259Z,3.87
2018-12-04T15:23:03.074Z,6.40
2018-12-04T15:25:37.790Z,3.93
2018-12-04T15:28:13.713Z,5.17
2018-12-04T15:30:48.134Z,5.27
2018-12-04T15:33:23.004Z,5.10
2018-12-04T15:35:56.872Z,3.77
2018-12-04T15:38:30.927Z,4.93
2018-12-04T15:41:05.813Z,5.90
2018-12-04T15:43:39.790Z,5.43
2018-12-04T15:46:13.929Z,5.73
2018-12-04T15:48:47.979Z,3.87
2018-12-04T15:51:22.019Z,5.93
2018-12-04T15:53:56.840Z,3.87
2018-12-04T15:56:30.875Z,5.62
2018-12-04T15:59:04.967Z,5.73
2018-12-04T16:01:39.238Z,4.70
2018-12-04T16:04:13.167Z,5.20
2018-12-04T16:06:47.341Z,6.13
2018-12-04T16:09:22.046Z,4.57
2018-12-04T16:14:27.560Z,5.37
2018-12-04T16:17:01.374Z,6.47
2018-12-04T16:19:35.226Z,7.37
2018-12-04T16:22:09.250Z,5.47
2018-12-04T16:24:43.274Z,5.08
2018-12-04T16:27:17.952Z,5.57
2018-12-04T16:29:52.037Z,5.37
2018-12-04T16:32:26.038Z,4.87
2018-12-04T16:35:00.745Z,9.50
2018-12-04T16:37:34.559Z,10.50
2018-12-04T16:40:08.821Z,7.40
2018-12-04T16:42:42.913Z,8.50
2018-12-04T16:45:17.505Z,9.47
2018-12-04T16:47:53.736Z,14.57
2018-12-04T16:50:28.321Z,11.10
2018-12-04T16:53:02.347Z,13.03
2018-12-04T16:55:37.095Z,10.93
2018-12-04T16:58:11.093Z,13.00
2018-12-04T17:00:45.095Z,12.67
2018-12-04T17:03:18.998Z,11.53
2018-12-04T17:05:53.945Z,10.43
2018-12-04T17:08:28.901Z,7.23
2018-12-04T17:11:04.035Z,9.83
2018-12-04T17:16:09.270Z,8.40
2018-12-04T17:18:43.924Z,9.83
2018-12-04T17:21:17.712Z,8.87
2018-12-04T17:23:51.689Z,10.53
2018-12-04T17:26:28.701Z,11.67
2018-12-04T17:29:02.768Z,9.10
2018-12-04T17:31:36.707Z,9.13
2018-12-04T17:34:10.668Z,11.27
2018-12-04T17:36:46.326Z,10.00
2018-12-04T17:39:20.306Z,8.40
2018-12-04T17:41:54.695Z,10.00
2018-12-04T17:44:29.353Z,8.93
2018-12-04T17:47:03.391Z,8.20
2018-12-04T17:49:37.215Z,9.20
2018-12-04T17:52:11.139Z,10.33
2018-12-04T17:54:45.089Z,8.47
2018-12-04T17:57:19.790Z,8.20
2018-12-04T17:59:53.706Z,11.93
2018-12-04T18:02:27.693Z,11.97
2018-12-04T18:05:02.719Z,8.23
2018-12-04T18:07:37.465Z,11.07
2018-12-04T18:10:11.351Z,8.10
2018-12-04T18:12:45.330Z,7.07
2018-12-04T18:15:19.241Z,12.50
2018-12-04T18:17:53.155Z,8.37
2018-12-04T18:20:27.888Z,7.50
2018-12-04T18:23:01.971Z,9.43
2018-12-04T18:25:35.983Z,9.23
2018-12-04T18:28:09.987Z,9.27
2018-12-04T18:30:42.454Z,9.43
2018-12-04T18:33:16.737Z,9.77
2018-12-04T18:35:50.868Z,13.50
2018-12-04T18:38:24.692Z,10.67
2018-12-04T18:40:58.871Z,12.77
2018-12-04T18:43:33.034Z,9.70
2018-12-04T18:46:06.891Z,9.80
2018-12-04T18:48:41.676Z,11.87
2018-12-04T18:51:15.631Z,6.53
2018-12-04T18:53:49.453Z,6.63
2018-12-04T18:56:23.451Z,9.27
2018-12-04T18:58:57.459Z,7.40
2018-12-04T19:01:31.652Z,8.67
2018-12-04T19:04:06.307Z,11.77
2018-12-04T19:06:40.253Z,9.03
2018-12-04T19:09:14.114Z,6.77
2018-12-04T19:11:48.118Z,8.83
2018-12-04T19:14:22.331Z,7.00
2018-12-04T19:16:56.998Z,9.10
2018-12-04T19:19:31.091Z,7.73
2018-12-04T19:22:05.214Z,6.50
2018-12-04T19:24:39.246Z,8.00
2018-12-04T19:27:13.576Z,8.45
2018-12-04T19:29:48.239Z,7.37
2018-12-04T19:32:22.058Z,10.97
2018-12-04T19:34:56.017Z,8.93
2018-12-04T19:37:30.738Z,8.73
2018-12-04T19:40:05.221Z,7.23
2018-12-04T19:42:43.845Z,9.93
2018-12-04T19:45:18.527Z,8.90
2018-12-04T19:47:52.405Z,9.27
2018-12-04T19:50:26.402Z,7.00
2018-12-04T19:53:00.395Z,11.00
2018-12-04T19:55:34.666Z,7.13
2018-12-04T19:58:09.446Z,9.77
2018-12-04T20:00:43.560Z,12.83
2018-12-04T20:03:18.258Z,11.63
2018-12-04T20:05:52.386Z,7.00
2018-12-04T20:08:30.566Z,10.73
2018-12-04T20:11:04.630Z,6.13
2018-12-04T20:13:38.545Z,8.50
2018-12-04T20:16:12.715Z,7.03
2018-12-04T20:18:47.427Z,7.10
2018-12-04T20:21:21.363Z,8.37
2018-12-04T20:23:56.084Z,7.57
2018-12-04T20:26:30.294Z,7.67
2018-12-04T20:29:04.483Z,7.63
2018-12-04T20:31:38.323Z,5.70
2018-12-04T20:34:12.183Z,6.40
2018-12-04T20:36:46.146Z,6.77
2018-12-04T20:39:18.635Z,9.00
2018-12-04T20:41:53.117Z,8.67
2018-12-04T20:44:27.055Z,6.43
2018-12-04T20:47:01.016Z,8.27
2018-12-04T20:49:34.939Z,11.63
2018-12-04T20:52:09.155Z,8.97
2018-12-04T20:54:43.174Z,8.80
2018-12-04T20:57:17.266Z,7.07
2018-12-04T20:59:51.849Z,9.10
2018-12-04T21:02:26.129Z,8.47
2018-12-04T21:05:00.235Z,10.57
2018-12-04T21:07:34.936Z,9.57
2018-12-04T21:10:09.156Z,9.43
2018-12-04T21:12:44.076Z,7.87
2018-12-04T21:15:18.780Z,10.63
2018-12-04T21:17:53.635Z,7.73
2018-12-04T21:20:27.549Z,6.23
2018-12-04T21:25:32.481Z,7.53
2018-12-04T21:28:26.537Z,8.93
2018-12-04T21:31:07.738Z,7.13
2018-12-04T21:33:47.416Z,6.73
2018-12-04T21:36:27.432Z,7.33
2018-12-04T21:40:07.902Z,9.23
2018-12-04T21:42:47.153Z,9.37
2018-12-04T21:45:27.143Z,11.80
2018-12-04T21:48:06.312Z,9.30
2018-12-04T21:50:40.708Z,7.77
2018-12-04T21:53:18.731Z,7.77
2018-12-04T21:55:53.403Z,6.13
2018-12-04T21:58:27.335Z,11.30
2018-12-04T22:01:01.392Z,9.63
2018-12-04T22:03:35.412Z,7.17
2018-12-04T22:06:09.337Z,6.40
2018-12-04T22:08:43.173Z,7.40
2018-12-04T22:11:17.127Z,9.10
2018-12-04T22:13:49.534Z,7.70
2018-12-04T22:16:24.020Z,6.50
2018-12-04T22:18:59.261Z,7.40
2018-12-04T22:21:34.935Z,8.37
2018-12-04T22:26:40.517Z,8.13
2018-12-04T22:29:15.238Z,12.40
2018-12-04T22:31:49.526Z,7.03
2018-12-04T22:34:24.288Z,6.70
2018-12-04T22:36:58.396Z,8.33
2018-12-04T22:39:32.662Z,11.13
2018-12-04T22:42:06.631Z,9.33
2018-12-04T22:44:40.589Z,7.70
2018-12-04T22:47:14.826Z,7.93
2018-12-04T22:49:48.630Z,7.60
2018-12-04T22:52:22.523Z,7.43
2018-12-04T22:54:56.340Z,9.43
2018-12-04T22:57:30.262Z,7.23
2018-12-04T23:00:06.787Z,8.93
2018-12-04T23:02:41.403Z,9.87
2018-12-04T23:05:18.454Z,11.67
2018-12-04T23:07:52.542Z,10.37
2018-12-04T23:10:26.410Z,11.60
2018-12-04T23:13:00.468Z,10.87
2018-12-04T23:15:34.860Z,11.87
2018-12-04T23:18:09.562Z,13.43
2018-12-04T23:20:43.572Z,10.47
2018-12-04T23:23:17.459Z,11.50
2018-12-04T23:25:51.380Z,11.70
2018-12-04T23:28:25.401Z,11.90
2018-12-04T23:30:59.223Z,10.73
2018-12-04T23:33:33.355Z,9.63
2018-12-04T23:36:07.409Z,11.10
2018-12-04T23:38:41.521Z,10.53
2018-12-04T23:41:15.530Z,12.40
2018-12-04T23:43:50.438Z,12.73
2018-12-04T23:46:24.358Z,12.40
2018-12-04T23:48:59.067Z,13.73
2018-12-04T23:51:32.868Z,12.77
2018-12-04T23:54:06.912Z,13.13
2018-12-04T23:56:41.615Z,12.73
2018-12-04T23:59:15.686Z,13.27
